Time;durP1;ratioP1;P1;durP2;ratioP2;P2;SDS_P1;SDS_P2;PMS_P1;PMS_P2;Temp;Humidity;BMP_temperature;BMP_pressure;BME280_temperature;BME280_humidity;BME280_pressure;Samples;Min_cycle;Max_cycle;Signal;HPM_P1;HPM_P2
2022/05/21 00:00:30;;;;;;;2.80;1.10;;;;;;;;;;5016109;28;20114;-82
2022/05/21 00:02:56;;;;;;;1.42;0.90;;;;;;;;;;4999344;28;20030;-81
2022/05/21 00:05:23;;;;;;;2.22;1.10;;;;;;;;;;4999875;28;20052;-82
2022/05/21 00:07:49;;;;;;;2.00;1.05;;;;;;;;;;4999454;28;20086;-82
2022/05/21 00:10:15;;;;;;;2.97;1.02;;;;;;;;;;5025016;28;20040;-82
2022/05/21 00:12:41;;;;;;;3.42;1.40;;;;;;;;;;5035352;28;20511;-82
2022/05/21 00:15:07;;;;;;;2.00;1.00;;;;;;;;;;5018577;28;20063;-82
2022/05/21 00:17:32;;;;;;;3.35;1.05;;;;;;;;;;5035261;28;20082;-82
2022/05/21 00:19:58;;;;;;;2.05;1.00;;;;;;;;;;5035332;28;20392;-81
2022/05/21 00:22:23;;;;;;;3.13;1.00;;;;;;;;;;5018394;28;20058;-82
2022/05/21 00:24:49;;;;;;;2.92;1.00;;;;;;;;;;5035790;28;20086;-82
2022/05/21 00:27:14;;;;;;;1.73;0.82;;;;;;;;;;5032042;28;20045;-82
2022/05/21 00:29:40;;;;;;;1.88;0.70;;;;;;;;;;5010323;28;20041;-81
2022/05/21 00:32:05;;;;;;;3.40;1.00;;;;;;;;;;5035203;28;20082;-82
2022/05/21 00:34:31;;;;;;;1.88;0.70;;;;;;;;;;5035128;28;20045;-82
2022/05/21 00:36:57;;;;;;;1.83;0.70;;;;;;;;;;5018910;28;20120;-82
2022/05/21 00:39:22;;;;;;;1.65;0.82;;;;;;;;;;5002361;28;20071;-82
2022/05/21 00:41:48;;;;;;;1.25;0.80;;;;;;;;;;5018554;28;20100;-82
2022/05/21 00:44:14;;;;;;;1.02;0.63;;;;;;;;;;5018411;28;20415;-82
2022/05/21 00:46:41;;;;;;;2.35;0.80;;;;;;;;;;5018093;28;20107;-82
2022/05/21 00:49:10;;;;;;;2.20;0.95;;;;;;;;;;5034897;28;20111;-81
2022/05/21 00:52:05;;;;;;;3.17;1.20;;;;;;;;;;5005027;28;20034;-82
2022/05/21 00:54:38;;;;;;;1.40;0.50;;;;;;;;;;5014922;28;20036;-82
2022/05/21 00:57:10;;;;;;;2.55;0.77;;;;;;;;;;4998532;28;20048;-82
2022/05/21 00:59:48;;;;;;;1.25;0.60;;;;;;;;;;5013914;28;20039;-83
2022/05/21 01:02:15;;;;;;;2.35;0.80;;;;;;;;;;5014633;28;20026;-82
2022/05/21 01:04:42;;;;;;;1.63;0.80;;;;;;;;;;4984310;28;20038;-81
2022/05/21 01:07:08;;;;;;;1.50;0.55;;;;;;;;;;4982651;28;20034;-82
2022/05/21 01:09:33;;;;;;;1.38;0.60;;;;;;;;;;4998768;28;20041;-82
2022/05/21 01:12:01;;;;;;;2.90;0.60;;;;;;;;;;5014552;28;20044;-82
2022/05/21 01:14:27;;;;;;;2.28;0.85;;;;;;;;;;4982530;28;20041;-82
2022/05/21 01:16:52;;;;;;;2.00;0.73;;;;;;;;;;4997626;28;20048;-82
2022/05/21 01:19:18;;;;;;;2.00;0.50;;;;;;;;;;4997706;28;20473;-82
2022/05/21 01:21:43;;;;;;;1.42;0.75;;;;;;;;;;4998397;28;20566;-82
2022/05/21 01:24:10;;;;;;;1.65;0.60;;;;;;;;;;4998250;28;20518;-81
2022/05/21 01:26:35;;;;;;;1.45;0.50;;;;;;;;;;4991989;28;20035;-81
2022/05/21 01:29:05;;;;;;;2.38;0.60;;;;;;;;;;5032631;28;20033;-82
2022/05/21 01:31:32;;;;;;;1.92;0.68;;;;;;;;;;5001474;28;20106;-82
2022/05/21 01:33:59;;;;;;;1.10;0.60;;;;;;;;;;5001051;28;20053;-81
2022/05/21 01:36:24;;;;;;;1.75;0.63;;;;;;;;;;5001745;28;20029;-82
2022/05/21 01:38:50;;;;;;;1.75;1.02;;;;;;;;;;5017695;28;20040;-82
2022/05/21 01:41:15;;;;;;;1.88;0.60;;;;;;;;;;5034132;28;20071;-82
2022/05/21 01:46:24;;;;;;;1.77;0.40;;;;;;;;;;5036319;28;20033;-82
2022/05/21 01:48:50;;;;;;;1.75;0.73;;;;;;;;;;5017085;28;20411;-82
2022/05/21 01:51:15;;;;;;;1.05;0.50;;;;;;;;;;5000917;28;20024;-82
2022/05/21 01:53:41;;;;;;;1.33;0.60;;;;;;;;;;5033753;28;20754;-81
2022/05/21 01:56:07;;;;;;;2.53;0.50;;;;;;;;;;5000939;28;20036;-82
2022/05/21 01:58:33;;;;;;;1.45;0.50;;;;;;;;;;5004256;28;20119;-81
2022/05/21 02:00:58;;;;;;;3.17;0.65;;;;;;;;;;5001050;28;20598;-81
2022/05/21 02:03:24;;;;;;;1.17;0.63;;;;;;;;;;5016739;28;20044;-82
2022/05/21 02:05:49;;;;;;;1.75;0.60;;;;;;;;;;5017273;28;20411;-81
2022/05/21 02:08:16;;;;;;;2.03;0.70;;;;;;;;;;5017028;28;20037;-82
2022/05/21 02:10:42;;;;;;;1.50;0.57;;;;;;;;;;5016707;28;20032;-82
2022/05/21 02:13:07;;;;;;;1.45;0.55;;;;;;;;;;5017079;28;20438;-81
2022/05/21 02:15:33;;;;;;;2.88;0.75;;;;;;;;;;5017381;28;20403;-82
2022/05/21 02:17:58;;;;;;;1.95;0.70;;;;;;;;;;5016684;28;20523;-81
2022/05/21 02:20:23;;;;;;;1.65;0.45;;;;;;;;;;5016636;28;20228;-82
2022/05/21 02:22:49;;;;;;;3.03;1.08;;;;;;;;;;5016030;28;20397;-82
2022/05/21 02:25:16;;;;;;;3.45;0.68;;;;;;;;;;5016807;28;20045;-82
2022/05/21 02:27:43;;;;;;;1.98;0.50;;;;;;;;;;5017131;28;20057;-80
2022/05/21 02:30:09;;;;;;;1.90;0.68;;;;;;;;;;5000650;28;20079;-82
2022/05/21 02:32:34;;;;;;;1.70;0.75;;;;;;;;;;5016994;28;20045;-82
2022/05/21 02:35:00;;;;;;;4.63;0.82;;;;;;;;;;5033280;28;20456;-82
2022/05/21 02:40:09;;;;;;;3.05;0.75;;;;;;;;;;5035934;28;20037;-81
2022/05/21 02:42:45;;;;;;;1.55;0.63;;;;;;;;;;5000764;28;20492;-82
2022/05/21 02:45:18;;;;;;;1.67;0.52;;;;;;;;;;5034540;28;20033;-81
2022/05/21 02:47:44;;;;;;;2.05;0.68;;;;;;;;;;5017443;28;20048;-82
2022/05/21 02:50:10;;;;;;;2.08;0.50;;;;;;;;;;4998559;28;20037;-81
2022/05/21 02:52:36;;;;;;;4.78;1.08;;;;;;;;;;5012061;28;20033;-81
2022/05/21 02:55:02;;;;;;;1.50;0.40;;;;;;;;;;5017064;28;20124;-82
2022/05/21 02:57:27;;;;;;;2.30;0.75;;;;;;;;;;5016843;28;20119;-81
2022/05/21 02:59:53;;;;;;;3.22;1.05;;;;;;;;;;5033242;28;20399;-82
2022/05/21 03:02:18;;;;;;;2.90;0.90;;;;;;;;;;5016122;28;20446;-81
2022/05/21 03:04:44;;;;;;;2.30;0.63;;;;;;;;;;5016737;28;20453;-81
2022/05/21 03:07:10;;;;;;;1.75;0.50;;;;;;;;;;5000279;28;20033;-81
2022/05/21 03:12:19;;;;;;;3.55;0.60;;;;;;;;;;5021726;28;20115;-81
2022/05/21 03:14:45;;;;;;;3.38;0.60;;;;;;;;;;5000399;28;20044;-82
2022/05/21 03:17:11;;;;;;;1.90;0.20;;;;;;;;;;5015921;28;20454;-82
2022/05/21 03:19:37;;;;;;;2.15;0.55;;;;;;;;;;5001076;28;20057;-82
2022/05/21 03:22:03;;;;;;;1.90;0.43;;;;;;;;;;5001525;28;20551;-82
2022/05/21 03:24:28;;;;;;;2.00;0.50;;;;;;;;;;5003949;28;20087;-81
2022/05/21 03:26:54;;;;;;;3.22;0.52;;;;;;;;;;5003332;28;20419;-82
2022/05/21 03:29:20;;;;;;;1.13;0.30;;;;;;;;;;5019673;28;20095;-81
2022/05/21 03:31:45;;;;;;;1.52;0.40;;;;;;;;;;5003675;28;20483;-82
2022/05/21 03:34:11;;;;;;;1.88;0.77;;;;;;;;;;5003703;28;20045;-82
2022/05/21 03:36:36;;;;;;;2.33;0.55;;;;;;;;;;5036214;28;20427;-82
2022/05/21 03:39:02;;;;;;;3.00;0.50;;;;;;;;;;5019885;28;20423;-82
2022/05/21 03:41:27;;;;;;;1.77;0.55;;;;;;;;;;5003433;28;20052;-81
2022/05/21 03:43:53;;;;;;;2.15;0.40;;;;;;;;;;5035637;28;20071;-82
2022/05/21 03:46:19;;;;;;;2.38;0.75;;;;;;;;;;4990115;28;20419;-81
2022/05/21 03:48:45;;;;;;;1.30;0.50;;;;;;;;;;4971985;28;20025;-81
2022/05/21 03:51:10;;;;;;;1.27;0.50;;;;;;;;;;5007674;28;20037;-82
2022/05/21 03:53:36;;;;;;;1.90;0.40;;;;;;;;;;5016039;28;20176;-81
2022/05/21 03:56:01;;;;;;;1.63;0.50;;;;;;;;;;4983483;28;20097;-81
2022/05/21 03:58:27;;;;;;;0.60;0.30;;;;;;;;;;5015735;28;20034;-82
2022/05/21 04:00:52;;;;;;;2.78;0.38;;;;;;;;;;5000040;28;20049;-81
2022/05/21 04:03:19;;;;;;;3.10;0.50;;;;;;;;;;4999799;28;20099;-81
2022/05/21 04:05:44;;;;;;;2.30;0.73;;;;;;;;;;4983496;28;20065;-81
2022/05/21 04:08:10;;;;;;;1.17;0.40;;;;;;;;;;5015792;28;20385;-82
2022/05/21 04:10:35;;;;;;;2.58;1.27;;;;;;;;;;4983082;28;20029;-82
2022/05/21 04:13:01;;;;;;;2.08;0.50;;;;;;;;;;5015390;28;20520;-82
2022/05/21 04:15:26;;;;;;;1.60;0.60;;;;;;;;;;4999150;28;20041;-81
2022/05/21 04:17:53;;;;;;;1.85;0.45;;;;;;;;;;4999538;28;20111;-82
2022/05/21 04:20:20;;;;;;;2.35;0.65;;;;;;;;;;4999702;28;20443;-82
2022/05/21 04:22:45;;;;;;;2.33;0.57;;;;;;;;;;4999351;28;20120;-82
2022/05/21 04:25:11;;;;;;;2.65;0.52;;;;;;;;;;4999339;28;20117;-81
2022/05/21 04:27:38;;;;;;;3.80;0.47;;;;;;;;;;5017786;28;20128;-82
2022/05/21 04:30:05;;;;;;;1.67;0.52;;;;;;;;;;5035550;28;20047;-82
2022/05/21 04:32:30;;;;;;;2.05;0.90;;;;;;;;;;5018471;28;20029;-82
2022/05/21 04:34:56;;;;;;;1.98;0.60;;;;;;;;;;5018514;28;20061;-82
2022/05/21 04:37:21;;;;;;;1.58;0.45;;;;;;;;;;5035109;28;20432;-82
2022/05/21 04:39:47;;;;;;;4.10;0.77;;;;;;;;;;5018201;28;20032;-81
2022/05/21 04:42:12;;;;;;;1.48;0.50;;;;;;;;;;5018040;28;20037;-81
2022/05/21 04:44:38;;;;;;;1.50;0.43;;;;;;;;;;5017802;28;20045;-81
2022/05/21 04:47:04;;;;;;;1.88;0.55;;;;;;;;;;5018150;28;20400;-81
2022/05/21 04:49:30;;;;;;;2.03;0.55;;;;;;;;;;5028261;28;20057;-82
2022/05/21 04:51:56;;;;;;;1.67;0.40;;;;;;;;;;4986168;28;20041;-82
2022/05/21 04:54:22;;;;;;;2.45;0.70;;;;;;;;;;4998599;28;20123;-81
2022/05/21 04:56:47;;;;;;;3.35;0.65;;;;;;;;;;5014786;28;20511;-82
2022/05/21 04:59:13;;;;;;;1.90;0.60;;;;;;;;;;5014802;28;20051;-81
2022/05/21 05:01:39;;;;;;;2.95;0.60;;;;;;;;;;5014771;28;20037;-81
2022/05/21 05:04:05;;;;;;;1.77;0.55;;;;;;;;;;4998853;28;20033;-81
2022/05/21 05:06:30;;;;;;;3.10;0.70;;;;;;;;;;4998473;28;20049;-81
2022/05/21 05:08:56;;;;;;;3.88;0.70;;;;;;;;;;4998755;28;20056;-81
2022/05/21 05:11:21;;;;;;;11.70;1.48;;;;;;;;;;4997991;28;20125;-81
2022/05/21 05:13:47;;;;;;;2.80;0.70;;;;;;;;;;4982257;28;20029;-80
2022/05/21 05:16:12;;;;;;;2.15;0.50;;;;;;;;;;4998023;28;20044;-80
2022/05/21 05:18:38;;;;;;;4.10;0.63;;;;;;;;;;4998077;28;20421;-80
2022/05/21 05:21:03;;;;;;;3.38;1.00;;;;;;;;;;4998589;28;20033;-80
2022/05/21 05:23:29;;;;;;;2.38;0.80;;;;;;;;;;4998332;28;20492;-80
2022/05/21 05:25:54;;;;;;;3.72;0.80;;;;;;;;;;5014443;28;20408;-80
2022/05/21 05:28:21;;;;;;;2.17;0.85;;;;;;;;;;4998113;28;20034;-81
2022/05/21 05:30:48;;;;;;;2.50;0.90;;;;;;;;;;5034139;28;20893;-83
2022/05/21 05:33:14;;;;;;;5.03;0.90;;;;;;;;;;5001222;28;20095;-82
2022/05/21 05:35:40;;;;;;;4.43;1.23;;;;;;;;;;5001395;28;20399;-82
2022/05/21 05:38:06;;;;;;;5.85;1.10;;;;;;;;;;5017567;28;20033;-81
2022/05/21 05:40:33;;;;;;;3.67;1.10;;;;;;;;;;5033531;28;20499;-81
2022/05/21 05:43:00;;;;;;;8.60;2.05;;;;;;;;;;5017282;28;20061;-81
2022/05/21 05:45:25;;;;;;;7.30;1.73;;;;;;;;;;5034186;28;20041;-82
2022/05/21 05:47:51;;;;;;;13.10;2.08;;;;;;;;;;5017275;28;20041;-81
2022/05/21 05:50:16;;;;;;;7.05;1.90;;;;;;;;;;4998572;28;20452;-81
2022/05/21 05:52:42;;;;;;;6.10;1.83;;;;;;;;;;4997948;28;20049;-81
2022/05/21 05:55:08;;;;;;;8.07;1.90;;;;;;;;;;4997336;28;20412;-80
2022/05/21 05:57:33;;;;;;;5.78;1.90;;;;;;;;;;4997745;28;20381;-79
2022/05/21 05:59:59;;;;;;;9.90;2.17;;;;;;;;;;5007719;28;20044;-79
2022/05/21 06:05:14;;;;;;;6.18;1.50;;;;;;;;;;5035321;28;20388;-78
2022/05/21 06:07:43;;;;;;;5.57;1.40;;;;;;;;;;5016857;28;20116;-78
2022/05/21 06:10:09;;;;;;;7.72;1.50;;;;;;;;;;5049835;28;20036;-78
2022/05/21 06:12:35;;;;;;;5.88;1.83;;;;;;;;;;5017408;28;20310;-79
2022/05/21 06:15:00;;;;;;;6.22;1.98;;;;;;;;;;5017556;28;20041;-79
2022/05/21 06:17:26;;;;;;;5.00;1.70;;;;;;;;;;5033258;28;20041;-78
2022/05/21 06:19:52;;;;;;;8.82;2.22;;;;;;;;;;5017032;28;20040;-79
2022/05/21 06:22:18;;;;;;;7.05;1.52;;;;;;;;;;5033354;28;20036;-79
2022/05/21 06:24:43;;;;;;;5.68;1.23;;;;;;;;;;5017035;28;20186;-79
2022/05/21 06:27:08;;;;;;;4.68;1.50;;;;;;;;;;5001551;28;20041;-79
2022/05/21 06:29:37;;;;;;;4.22;1.60;;;;;;;;;;5020097;28;20045;-79
2022/05/21 06:32:06;;;;;;;6.78;1.58;;;;;;;;;;5014244;28;20041;-79
2022/05/21 06:34:32;;;;;;;6.53;1.88;;;;;;;;;;5013427;28;20048;-79
2022/05/21 06:37:03;;;;;;;6.45;1.75;;;;;;;;;;5013532;28;20041;-79
2022/05/21 06:39:31;;;;;;;9.40;2.80;;;;;;;;;;5029715;28;20112;-79
2022/05/21 06:41:56;;;;;;;4.13;1.38;;;;;;;;;;4997121;28;20042;-79
2022/05/21 06:44:21;;;;;;;7.13;1.88;;;;;;;;;;5013601;28;20037;-79
2022/05/21 06:46:47;;;;;;;6.07;1.40;;;;;;;;;;5013211;28;20037;-79
2022/05/21 06:49:13;;;;;;;5.65;1.63;;;;;;;;;;5017302;28;20407;-79
2022/05/21 06:51:38;;;;;;;6.75;1.63;;;;;;;;;;5014523;28;20088;-79
2022/05/21 06:54:04;;;;;;;5.43;1.48;;;;;;;;;;5013210;28;20116;-79
2022/05/21 06:56:29;;;;;;;5.40;1.55;;;;;;;;;;4999064;28;20061;-79
2022/05/21 06:58:55;;;;;;;5.60;1.92;;;;;;;;;;5017065;28;20110;-79
2022/05/21 07:01:26;;;;;;;8.10;2.15;;;;;;;;;;5033177;28;20151;-79
2022/05/21 07:04:01;;;;;;;11.38;2.28;;;;;;;;;;5005461;28;20557;-80
2022/05/21 07:09:21;;;;;;;7.78;2.05;;;;;;;;;;5025789;28;20108;-78
2022/05/21 07:11:49;;;;;;;6.93;2.13;;;;;;;;;;5037202;28;20032;-79
2022/05/21 07:14:14;;;;;;;5.50;1.83;;;;;;;;;;5004442;28;20037;-78
2022/05/21 07:16:40;;;;;;;8.00;1.55;;;;;;;;;;5036154;28;20064;-79
2022/05/21 07:19:07;;;;;;;6.53;1.67;;;;;;;;;;5019885;28;20138;-78
2022/05/21 07:21:33;;;;;;;5.63;1.90;;;;;;;;;;5004013;28;20040;-80
2022/05/21 07:23:58;;;;;;;6.75;1.88;;;;;;;;;;5003778;28;20139;-79
2022/05/21 07:26:23;;;;;;;8.50;1.77;;;;;;;;;;5027300;28;20034;-79
2022/05/21 07:28:53;;;;;;;5.00;1.50;;;;;;;;;;5004067;28;20131;-79
2022/05/21 07:31:31;;;;;;;6.15;1.65;;;;;;;;;;5020728;28;20597;-79
2022/05/21 07:34:03;;;;;;;5.85;1.67;;;;;;;;;;5036560;28;20427;-79
2022/05/21 07:36:29;;;;;;;6.22;1.70;;;;;;;;;;5019633;28;20059;-79
2022/05/21 07:38:54;;;;;;;6.97;1.55;;;;;;;;;;5019793;28;20045;-79
2022/05/21 07:41:21;;;;;;;4.47;1.33;;;;;;;;;;5019503;28;20403;-79
2022/05/21 07:43:46;;;;;;;6.20;1.33;;;;;;;;;;5003632;28;20037;-78
2022/05/21 07:46:15;;;;;;;5.35;1.92;;;;;;;;;;5003263;28;20040;-79
2022/05/21 07:48:41;;;;;;;6.55;1.80;;;;;;;;;;5019545;28;20029;-79
2022/05/21 07:51:06;;;;;;;5.47;1.20;;;;;;;;;;5009850;28;20458;-79
2022/05/21 07:53:35;;;;;;;6.85;1.52;;;;;;;;;;4999969;28;20408;-80
2022/05/21 07:56:10;;;;;;;;;;;;;;;;;;5001451;28;20037;-80
2022/05/21 07:58:37;;;;;;;6.25;1.50;;;;;;;;;;4999098;28;19917;-79
2022/05/21 08:01:03;;;;;;;6.18;1.42;;;;;;;;;;5029836;28;20458;-79
2022/05/21 08:03:29;;;;;;;7.78;1.80;;;;;;;;;;5019435;28;20033;-79
2022/05/21 08:05:55;;;;;;;8.63;2.15;;;;;;;;;;5018943;28;20044;-79
2022/05/21 08:08:28;;;;;;;7.63;1.92;;;;;;;;;;5018424;28;20029;-78
2022/05/21 08:11:03;;;;;;;5.60;1.75;;;;;;;;;;5007516;28;20087;-78
2022/05/21 08:13:34;;;;;;;6.72;1.73;;;;;;;;;;5035491;28;20041;-78
2022/05/21 08:16:01;;;;;;;5.57;1.63;;;;;;;;;;5020104;28;20491;-79
2022/05/21 08:18:27;;;;;;;10.45;2.00;;;;;;;;;;5018323;28;20066;-79
2022/05/21 08:20:54;;;;;;;5.80;2.17;;;;;;;;;;5018646;28;20029;-78
2022/05/21 08:28:47;;;;;;;6.93;2.05;;;;;;;;;;5008039;28;20061;-79
2022/05/21 08:31:13;;;;;;;5.68;1.77;;;;;;;;;;5018837;28;20040;-79
2022/05/21 08:33:39;;;;;;;5.15;1.20;;;;;;;;;;5018553;28;20041;-80
2022/05/21 08:36:04;;;;;;;3.05;0.98;;;;;;;;;;5035745;28;20044;-79
2022/05/21 08:38:30;;;;;;;6.47;1.25;;;;;;;;;;5018552;28;20029;-79
2022/05/21 08:41:11;;;;;;;6.53;1.20;;;;;;;;;;5018580;28;20110;-79
2022/05/21 08:43:54;;;;;;;4.40;1.10;;;;;;;;;;5035166;28;20057;-80
2022/05/21 08:46:36;;;;;;;20.52;10.32;;;;;;;;;;5034957;28;20037;-79
2022/05/21 08:49:04;;;;;;;5.55;1.77;;;;;;;;;;5051722;28;20499;-79
2022/05/21 08:51:52;;;;;;;5.53;1.80;;;;;;;;;;4989875;28;20045;-79
2022/05/21 08:54:22;;;;;;;7.55;3.08;;;;;;;;;;4998758;28;20098;-80
2022/05/21 08:56:48;;;;;;;7.85;3.40;;;;;;;;;;4998799;28;20145;-79
2022/05/21 08:59:13;;;;;;;10.55;3.92;;;;;;;;;;4998368;28;20037;-79
2022/05/21 09:01:40;;;;;;;12.32;5.53;;;;;;;;;;5033351;28;20029;-79
2022/05/21 09:04:05;;;;;;;11.30;5.55;;;;;;;;;;5018089;28;20041;-80
2022/05/21 09:06:34;;;;;;;11.77;6.00;;;;;;;;;;5018411;28;20075;-79
2022/05/21 09:09:55;;;;;;;11.77;6.00;;;;;;;;;;5001699;28;20037;-79
2022/05/21 09:12:29;;;;;;;9.48;5.03;;;;;;;;;;4990169;28;20035;-79
2022/05/21 09:14:56;;;;;;;7.70;4.50;;;;;;;;;;5017540;28;20053;-79
2022/05/21 09:17:24;;;;;;;7.60;3.65;;;;;;;;;;5001057;28;20029;-79
2022/05/21 09:19:52;;;;;;;6.65;3.97;;;;;;;;;;5017742;28;20033;-80
2022/05/21 09:22:20;;;;;;;7.90;3.30;;;;;;;;;;5001872;28;20156;-79
2022/05/21 09:24:48;;;;;;;8.65;3.90;;;;;;;;;;5001249;28;20127;-80
2022/05/21 09:27:21;;;;;;;6.85;2.92;;;;;;;;;;5014122;28;20041;-79
2022/05/21 09:29:47;;;;;;;5.63;2.58;;;;;;;;;;5026120;28;20040;-79
2022/05/21 09:32:21;;;;;;;7.13;2.85;;;;;;;;;;5033866;28;20141;-80
2022/05/21 09:35:05;;;;;;;7.80;2.72;;;;;;;;;;5034396;28;20086;-79
2022/05/21 09:37:30;;;;;;;6.43;2.75;;;;;;;;;;5017605;28;20029;-80
2022/05/21 09:39:56;;;;;;;7.63;2.10;;;;;;;;;;5017558;28;20133;-80
2022/05/21 09:45:23;;;;;;;5.72;1.55;;;;;;;;;;5036485;28;20033;-79
2022/05/21 09:48:04;;;;;;;5.03;1.70;;;;;;;;;;5051424;28;20029;-80
2022/05/21 09:50:30;;;;;;;4.30;1.40;;;;;;;;;;5030474;28;20307;-80
2022/05/21 09:52:55;;;;;;;5.72;1.83;;;;;;;;;;4981544;28;20462;-80
2022/05/21 09:55:26;;;;;;;3.78;1.30;;;;;;;;;;4997700;28;20045;-79
2022/05/21 09:57:51;;;;;;;4.43;1.58;;;;;;;;;;4997528;28;20099;-79
2022/05/21 10:00:28;;;;;;;4.10;1.48;;;;;;;;;;4997567;28;20539;-80
2022/05/21 10:02:58;;;;;;;3.40;1.60;;;;;;;;;;4998810;28;20041;-79
2022/05/21 10:05:35;;;;;;;3.20;0.95;;;;;;;;;;4981318;28;20046;-80
2022/05/21 10:11:10;;;;;;;6.63;1.50;;;;;;;;;;5013749;28;20040;-80
2022/05/21 10:13:44;;;;;;;4.57;1.40;;;;;;;;;;4981734;28;20507;-80
2022/05/21 10:16:12;;;;;;;5.18;0.80;;;;;;;;;;4981300;28;20143;-79
2022/05/21 10:18:45;;;;;;;5.22;1.58;;;;;;;;;;4997708;28;20036;-79
2022/05/21 10:21:35;;;;;;;6.47;1.35;;;;;;;;;;4997836;28;20026;-80
2022/05/21 10:24:09;;;;;;;4.55;1.08;;;;;;;;;;4997465;28;20099;-80
2022/05/21 10:26:38;;;;;;;7.75;1.33;;;;;;;;;;5000826;28;20025;-79
2022/05/21 10:29:13;;;;;;;5.25;1.42;;;;;;;;;;5033475;28;20033;-80
2022/05/21 10:32:18;;;;;;;37.72;27.27;;;;;;;;;;5035659;28;20029;-79
2022/05/21 10:35:16;;;;;;;80.97;52.25;;;;;;;;;;5037640;28;20095;-80
2022/05/21 10:38:03;;;;;;;28.45;18.83;;;;;;;;;;5023175;28;20048;-80
2022/05/21 10:40:35;;;;;;;17.95;9.20;;;;;;;;;;5038903;28;20123;-79
2022/05/21 10:43:13;;;;;;;9.85;4.78;;;;;;;;;;5059527;28;20033;-80
2022/05/21 10:46:02;;;;;;;7.22;3.03;;;;;;;;;;5024324;28;20406;-79
2022/05/21 10:48:44;;;;;;;10.23;2.13;;;;;;;;;;5005057;28;20051;-79
2022/05/21 10:51:30;;;;;;;10.40;2.42;;;;;;;;;;5013973;28;20419;-79
2022/05/21 10:54:17;;;;;;;5.97;1.50;;;;;;;;;;5018494;28;20021;-78
2022/05/21 10:56:48;;;;;;;7.30;1.77;;;;;;;;;;5001814;28;20051;-78
2022/05/21 10:59:32;;;;;;;5.80;1.50;;;;;;;;;;5036175;28;20030;-78
2022/05/21 11:02:24;;;;;;;9.18;1.75;;;;;;;;;;5037504;28;20041;-78
2022/05/21 11:05:20;;;;;;;4.90;1.38;;;;;;;;;;4988024;28;20096;-78
2022/05/21 11:08:13;;;;;;;6.32;1.73;;;;;;;;;;5021700;28;20072;-79
2022/05/21 11:10:48;;;;;;;5.15;1.67;;;;;;;;;;5021423;28;20496;-79
2022/05/21 11:13:27;;;;;;;4.15;1.13;;;;;;;;;;5004867;28;20026;-78
2022/05/21 11:16:17;;;;;;;4.35;1.30;;;;;;;;;;4988573;28;20583;-78
2022/05/21 11:18:53;;;;;;;2.92;1.00;;;;;;;;;;5024017;28;20053;-78
2022/05/21 11:21:21;;;;;;;3.75;1.50;;;;;;;;;;5006139;28;20116;-79
2022/05/21 11:24:22;;;;;;;5.05;0.63;;;;;;;;;;5021999;28;20033;-79
2022/05/21 11:27:18;;;;;;;5.35;0.82;;;;;;;;;;5051829;28;20064;-78
2022/05/21 11:29:49;;;;;;;6.30;1.00;;;;;;;;;;5023495;28;20056;-78
2022/05/21 11:38:42;;;;;;;16.63;1.52;;;;;;;;;;5042626;28;20079;-79
2022/05/21 11:41:29;;;;;;;5.20;1.50;;;;;;;;;;5023575;28;20045;-77
2022/05/21 11:46:53;;;;;;;6.00;1.45;;;;;;;;;;5037155;28;20427;-80
2022/05/21 11:49:44;;;;;;;3.88;1.40;;;;;;;;;;5004821;28;20029;-80
2022/05/21 11:52:34;;;;;;;4.28;1.15;;;;;;;;;;5012888;28;20132;-79
2022/05/21 11:55:18;;;;;;;2.33;0.80;;;;;;;;;;5015099;28;20112;-80
2022/05/21 11:58:00;;;;;;;4.70;0.93;;;;;;;;;;4998219;28;20048;-80
2022/05/21 12:00:26;;;;;;;3.33;0.80;;;;;;;;;;5002938;28;20033;-80
2022/05/21 12:02:54;;;;;;;2.90;0.85;;;;;;;;;;5013248;28;20045;-79
2022/05/21 12:05:35;;;;;;;3.50;0.73;;;;;;;;;;4996660;28;20410;-79
2022/05/21 12:08:11;;;;;;;5.15;0.60;;;;;;;;;;4996708;28;20045;-79
2022/05/21 12:10:55;;;;;;;3.90;1.20;;;;;;;;;;4997281;28;20487;-79
2022/05/21 12:13:33;;;;;;;9.00;4.63;;;;;;;;;;5013109;28;20180;-79
2022/05/21 12:16:19;;;;;;;9.07;4.40;;;;;;;;;;4998700;28;20041;-79
2022/05/21 12:18:46;;;;;;;8.98;3.78;;;;;;;;;;5013917;28;20041;-80
2022/05/21 12:21:32;;;;;;;7.60;2.75;;;;;;;;;;4998915;28;20037;-79
2022/05/21 12:27:51;;;;;;;6.22;1.83;;;;;;;;;;5052046;23;20522;-79
2022/05/21 12:30:28;;;;;;;6.03;2.17;;;;;;;;;;5050203;28;20063;-79
2022/05/21 12:32:53;;;;;;;4.78;1.23;;;;;;;;;;5034516;28;20041;-79
2022/05/21 12:35:31;;;;;;;4.78;1.48;;;;;;;;;;5033622;28;20514;-79
2022/05/21 12:38:35;;;;;;;5.78;1.55;;;;;;;;;;5063595;28;20115;-79
2022/05/21 12:41:19;;;;;;;3.78;1.10;;;;;;;;;;5069912;28;20029;-79
2022/05/21 12:43:47;;;;;;;5.03;1.10;;;;;;;;;;5052645;28;20139;-80
2022/05/21 12:46:20;;;;;;;3.85;0.70;;;;;;;;;;5050119;28;20480;-80
2022/05/21 12:48:46;;;;;;;3.33;0.57;;;;;;;;;;5038228;28;20041;-80
2022/05/21 12:51:24;;;;;;;2.78;0.88;;;;;;;;;;5021094;28;20029;-80
2022/05/21 12:53:49;;;;;;;6.15;0.95;;;;;;;;;;5054736;28;20042;-80
2022/05/21 12:56:25;;;;;;;2.38;0.57;;;;;;;;;;5037493;28;20034;-79
2022/05/21 12:59:21;;;;;;;4.07;0.60;;;;;;;;;;5070145;28;20525;-79
2022/05/21 13:01:52;;;;;;;3.35;0.50;;;;;;;;;;5042156;28;20084;-79
2022/05/21 13:04:22;;;;;;;4.05;0.95;;;;;;;;;;5054359;28;20477;-80
2022/05/21 13:06:50;;;;;;;4.13;0.82;;;;;;;;;;5054649;28;20040;-79
2022/05/21 13:09:16;;;;;;;2.20;0.70;;;;;;;;;;5037390;28;20033;-79
2022/05/21 13:11:41;;;;;;;5.65;1.13;;;;;;;;;;5054240;28;20090;-79
2022/05/21 13:14:12;;;;;;;2.65;0.60;;;;;;;;;;5037250;28;20066;-77
2022/05/21 13:16:51;;;;;;;4.80;0.82;;;;;;;;;;5052470;28;20499;-79
2022/05/21 13:19:50;;;;;;;3.42;0.98;;;;;;;;;;5051479;28;20399;-80
2022/05/21 13:22:35;;;;;;;2.50;0.55;;;;;;;;;;5068408;28;20040;-79
2022/05/21 13:25:05;;;;;;;3.10;0.77;;;;;;;;;;5053335;28;20029;-79
2022/05/21 13:29:45;;;;;;;7.75;1.05;;;;;;;;;;5050427;28;20350;-78
2022/05/21 13:32:17;;;;;;;13.27;1.92;;;;;;;;;;5009684;28;20447;-78
2022/05/21 13:34:43;;;;;;;12.13;1.65;;;;;;;;;;4994877;28;20139;-78
2022/05/21 13:37:08;;;;;;;7.22;1.20;;;;;;;;;;5020790;28;20730;-78
2022/05/21 13:39:35;;;;;;;6.65;1.00;;;;;;;;;;4991408;28;20437;-78
2022/05/21 13:42:08;;;;;;;4.10;1.08;;;;;;;;;;5023852;28;20579;-78
2022/05/21 13:44:37;;;;;;;5.07;0.90;;;;;;;;;;5008075;28;20072;-78
2022/05/21 13:47:07;;;;;;;4.20;0.93;;;;;;;;;;5007359;28;20046;-78
2022/05/21 13:49:39;;;;;;;3.60;1.00;;;;;;;;;;5007815;28;20053;-78
2022/05/21 13:52:06;;;;;;;4.80;0.90;;;;;;;;;;4971254;28;20042;-76
2022/05/21 13:54:33;;;;;;;6.18;1.27;;;;;;;;;;4971392;28;20034;-77
2022/05/21 13:57:25;;;;;;;5.38;1.00;;;;;;;;;;4972017;28;20121;-77
2022/05/21 13:59:56;;;;;;;3.80;1.30;;;;;;;;;;5001096;28;20048;-76
2022/05/21 14:02:24;;;;;;;8.50;1.23;;;;;;;;;;5011273;28;20356;-77
2022/05/21 14:04:50;;;;;;;9.90;1.55;;;;;;;;;;5026990;28;20029;-77
2022/05/21 14:07:33;;;;;;;7.35;1.60;;;;;;;;;;4994167;28;20513;-77
2022/05/21 14:10:07;;;;;;;4.18;1.17;;;;;;;;;;5027555;28;20491;-77
2022/05/21 14:12:49;;;;;;;7.50;1.33;;;;;;;;;;5011026;28;20037;-77
2022/05/21 14:15:19;;;;;;;14.02;2.25;;;;;;;;;;4994471;28;20564;-77
2022/05/21 14:17:53;;;;;;;17.40;1.48;;;;;;;;;;5011104;28;20037;-78
2022/05/21 14:20:19;;;;;;;9.63;1.98;;;;;;;;;;4994793;28;20030;-78
2022/05/21 14:22:45;;;;;;;9.40;1.85;;;;;;;;;;5010305;28;20048;-77
2022/05/21 14:25:33;;;;;;;8.45;1.15;;;;;;;;;;4994471;28;20090;-78
2022/05/21 14:28:00;;;;;;;10.65;1.83;;;;;;;;;;4987022;28;20057;-77
2022/05/21 14:30:39;;;;;;;7.20;1.40;;;;;;;;;;5020797;28;20048;-78
2022/05/21 14:33:29;;;;;;;11.32;1.70;;;;;;;;;;5008582;28;20041;-78
2022/05/21 14:35:55;;;;;;;10.80;1.95;;;;;;;;;;5012550;28;20054;-78
2022/05/21 14:38:23;;;;;;;6.90;1.40;;;;;;;;;;5058720;28;20396;-78
2022/05/21 14:40:56;;;;;;;15.23;1.65;;;;;;;;;;5063828;28;20062;-78
2022/05/21 14:43:58;;;;;;;10.45;2.20;;;;;;;;;;5060392;28;20049;-78
2022/05/21 14:49:07;;;;;;;13.07;1.80;;;;;;;;;;4971160;28;20040;-77
2022/05/21 14:54:19;;;;;;;11.82;1.42;;;;;;;;;;5073228;28;20034;-78
2022/05/21 14:56:44;;;;;;;14.80;1.92;;;;;;;;;;5075729;28;20068;-79
2022/05/21 14:59:10;;;;;;;10.32;1.80;;;;;;;;;;5075591;28;20404;-78
2022/05/21 15:01:35;;;;;;;6.28;1.67;;;;;;;;;;5014757;28;20449;-78
2022/05/21 15:04:01;;;;;;;4.03;1.30;;;;;;;;;;4990245;28;20050;-79
2022/05/21 15:06:30;;;;;;;9.13;1.48;;;;;;;;;;4989805;28;20053;-78
2022/05/21 15:08:56;;;;;;;4.47;1.45;;;;;;;;;;4974003;28;20084;-78
2022/05/21 15:11:22;;;;;;;6.68;1.25;;;;;;;;;;4990131;28;20492;-78
2022/05/21 15:13:48;;;;;;;8.40;1.55;;;;;;;;;;4974290;28;20522;-77
2022/05/21 15:16:14;;;;;;;6.53;1.77;;;;;;;;;;5022674;28;20113;-78
2022/05/21 15:18:40;;;;;;;7.15;1.35;;;;;;;;;;5006673;28;20077;-78
2022/05/21 15:21:05;;;;;;;3.70;1.88;;;;;;;;;;4973924;28;20062;-77
2022/05/21 15:23:32;;;;;;;6.90;2.33;;;;;;;;;;4989944;28;20092;-78
2022/05/21 15:25:57;;;;;;;14.95;3.15;;;;;;;;;;4989647;28;20038;-77
2022/05/21 15:28:22;;;;;;;9.60;2.58;;;;;;;;;;5006023;28;20057;-78
2022/05/21 15:30:51;;;;;;;3.95;1.80;;;;;;;;;;5009216;28;20046;-78
2022/05/21 15:33:17;;;;;;;4.60;1.92;;;;;;;;;;4993016;28;20103;-78
2022/05/21 15:35:43;;;;;;;5.07;2.38;;;;;;;;;;5009101;28;20038;-79
2022/05/21 15:38:08;;;;;;;3.83;1.50;;;;;;;;;;5009144;28;20069;-79
2022/05/21 15:40:35;;;;;;;3.15;1.45;;;;;;;;;;5009276;28;20110;-79
2022/05/21 15:43:00;;;;;;;6.60;1.85;;;;;;;;;;4976951;28;20042;-79
2022/05/21 15:45:25;;;;;;;5.97;2.20;;;;;;;;;;4976636;28;20087;-79